Time;durP1;ratioP1;P1;durP2;ratioP2;P2;SDS_P1;SDS_P2;PMS_P1;PMS_P2;Temp;Humidity;BMP_temperature;BMP_pressure;BME280_temperature;BME280_humidity;BME280_pressure;Samples;Min_cycle;Max_cycle;Signal;HPM_P1;HPM_P2
2023/07/27 00:00:06;;;;;;;2.70;1.25;;;14.80;94.90;;;;;;5015731;28;20030;-70
2023/07/27 00:02:33;;;;;;;2.47;1.70;;;14.80;94.80;;;;;;5014973;28;20026;-71
2023/07/27 00:04:58;;;;;;;1.88;1.48;;;14.80;94.80;;;;;;5015568;28;20022;-70
2023/07/27 00:07:24;;;;;;;2.40;1.60;;;14.80;95.00;;;;;;5014875;28;20056;-70
2023/07/27 00:09:50;;;;;;;1.70;1.50;;;14.80;95.10;;;;;;5014997;28;20447;-70
2023/07/27 00:12:16;;;;;;;2.15;1.80;;;14.80;95.10;;;;;;5015486;28;20105;-70
2023/07/27 00:14:42;;;;;;;2.03;1.42;;;14.80;95.10;;;;;;5014866;28;20390;-70
2023/07/27 00:17:07;;;;;;;2.25;1.55;;;14.80;95.00;;;;;;5015376;28;20037;-70
2023/07/27 00:19:33;;;;;;;2.08;1.70;;;14.80;94.90;;;;;;5014446;28;20037;-71
2023/07/27 00:21:59;;;;;;;2.72;1.80;;;14.80;94.90;;;;;;4997429;28;20026;-71
2023/07/27 00:24:25;;;;;;;3.47;1.90;;;14.80;94.80;;;;;;5013030;28;20038;-71
2023/07/27 00:26:50;;;;;;;2.22;1.58;;;14.90;94.70;;;;;;5015096;28;20078;-71
2023/07/27 00:29:16;;;;;;;2.28;1.60;;;14.80;94.70;;;;;;5016163;28;20034;-71
2023/07/27 00:31:41;;;;;;;3.70;1.83;;;14.80;94.80;;;;;;5015520;28;20033;-71
2023/07/27 00:34:07;;;;;;;2.53;1.70;;;14.80;94.70;;;;;;5014806;28;20132;-70
2023/07/27 00:36:33;;;;;;;2.25;1.85;;;14.80;94.80;;;;;;5014102;28;20037;-71
2023/07/27 00:38:59;;;;;;;1.98;1.75;;;14.80;94.70;;;;;;5014737;28;20386;-71
2023/07/27 00:41:25;;;;;;;3.25;1.85;;;14.70;94.70;;;;;;5014652;28;20026;-71
2023/07/27 00:43:50;;;;;;;2.00;1.80;;;14.80;94.80;;;;;;5014301;28;20033;-71
2023/07/27 00:46:16;;;;;;;2.33;1.60;;;14.70;94.80;;;;;;5014528;28;20033;-71
2023/07/27 00:48:42;;;;;;;2.53;1.80;;;14.80;94.90;;;;;;5014181;28;20125;-72
2023/07/27 00:51:09;;;;;;;2.05;1.77;;;14.80;94.90;;;;;;5014544;28;20477;-71
2023/07/27 00:53:35;;;;;;;3.25;1.80;;;14.70;94.90;;;;;;5014124;28;20030;-71
2023/07/27 00:56:01;;;;;;;2.17;1.60;;;14.80;94.90;;;;;;5014120;28;20040;-71
2023/07/27 00:58:27;;;;;;;4.05;1.67;;;14.70;95.10;;;;;;5013947;28;20033;-72
2023/07/27 01:00:53;;;;;;;2.65;2.22;;;14.70;95.00;;;;;;5014303;28;20470;-71
2023/07/27 01:03:19;;;;;;;1.95;1.52;;;14.70;95.00;;;;;;5014072;28;20025;-71
2023/07/27 01:05:45;;;;;;;2.95;1.70;;;14.70;95.10;;;;;;5012232;28;20112;-71
2023/07/27 01:08:11;;;;;;;1.98;1.77;;;14.70;95.20;;;;;;5013598;28;20168;-71
2023/07/27 01:10:46;;;;;;;3.80;1.40;;;14.70;95.10;;;;;;5013687;28;20128;-71
2023/07/27 01:13:32;;;;;;;3.25;2.00;;;14.70;95.30;;;;;;5014222;28;20455;-71
2023/07/27 01:16:04;;;;;;;1.98;1.50;;;14.70;95.30;;;;;;5014321;28;20021;-71
2023/07/27 01:19:00;;;;;;;2.30;1.80;;;14.70;95.40;;;;;;5013390;28;20108;-72
2023/07/27 01:21:36;;;;;;;2.13;1.80;;;14.70;95.60;;;;;;5012692;28;20206;-71
2023/07/27 01:24:35;;;;;;;2.03;1.67;;;14.60;95.50;;;;;;5013912;28;20022;-71
2023/07/27 01:27:12;;;;;;;2.10;1.65;;;14.60;95.60;;;;;;5002254;28;20114;-71
2023/07/27 01:30:23;;;;;;;3.65;1.90;;;14.60;95.70;;;;;;4993581;28;20035;-71
2023/07/27 01:32:56;;;;;;;3.15;1.70;;;14.60;95.70;;;;;;4895962;29;20322;-71
2023/07/27 01:35:26;;;;;;;2.45;1.65;;;14.60;95.80;;;;;;4896003;29;20032;-71
2023/07/27 01:37:54;;;;;;;2.03;1.83;;;14.60;95.80;;;;;;4951438;28;20034;-71
2023/07/27 01:40:21;;;;;;;2.90;1.85;;;14.60;95.80;;;;;;4993635;28;20037;-71
2023/07/27 01:42:48;;;;;;;2.60;1.70;;;14.60;95.90;;;;;;4993593;28;20615;-71
2023/07/27 01:45:15;;;;;;;2.38;1.70;;;14.50;95.90;;;;;;4993952;28;20154;-71
2023/07/27 01:47:43;;;;;;;2.38;2.00;;;14.50;95.90;;;;;;4993393;28;20037;-71
2023/07/27 01:50:10;;;;;;;3.65;1.80;;;14.50;96.00;;;;;;4993853;28;20077;-71
2023/07/27 01:52:36;;;;;;;4.47;1.83;;;14.50;96.20;;;;;;4993476;28;20045;-71
2023/07/27 01:55:02;;;;;;;2.25;1.67;;;14.50;96.30;;;;;;4993721;28;20065;-71
2023/07/27 01:57:29;;;;;;;2.53;1.75;;;14.50;96.20;;;;;;4993759;28;20066;-71
2023/07/27 01:59:55;;;;;;;3.08;1.70;;;14.50;96.30;;;;;;4993028;28;20483;-71
2023/07/27 02:02:21;;;;;;;2.22;2.03;;;14.50;96.30;;;;;;4993626;28;20459;-71
2023/07/27 02:04:48;;;;;;;5.28;1.58;;;14.50;96.30;;;;;;4975787;28;20022;-71
2023/07/27 02:07:17;;;;;;;2.35;1.45;;;14.50;96.40;;;;;;4993062;28;20580;-71
2023/07/27 02:09:43;;;;;;;2.28;1.48;;;14.40;96.50;;;;;;4993147;28;20048;-71
2023/07/27 02:12:18;;;;;;;3.50;1.73;;;14.40;96.60;;;;;;4993291;28;20027;-71
2023/07/27 02:14:57;;;;;;;2.83;1.88;;;14.40;96.60;;;;;;4992955;28;20030;-71
2023/07/27 02:17:29;;;;;;;1.80;1.42;;;14.40;96.60;;;;;;4993294;28;20027;-71
2023/07/27 02:19:57;;;;;;;2.65;1.60;;;14.40;96.70;;;;;;4975249;28;20394;-71
2023/07/27 02:22:25;;;;;;;5.28;1.88;;;14.40;96.60;;;;;;4994083;28;20026;-71
2023/07/27 02:24:50;;;;;;;2.40;1.73;;;14.40;96.70;;;;;;4994437;28;20034;-71
2023/07/27 02:27:16;;;;;;;2.60;1.60;;;14.40;96.90;;;;;;4995475;28;20030;-71
2023/07/27 02:29:42;;;;;;;2.75;2.00;;;14.40;96.90;;;;;;4994349;28;20073;-71
2023/07/27 02:32:07;;;;;;;2.33;1.48;;;14.40;96.80;;;;;;4995092;28;20019;-71
2023/07/27 02:34:33;;;;;;;3.90;1.90;;;14.40;96.90;;;;;;4994888;28;20027;-71
2023/07/27 02:36:59;;;;;;;2.65;1.73;;;14.30;97.00;;;;;;4994876;28;20100;-71
2023/07/27 02:39:24;;;;;;;2.38;1.67;;;14.30;97.10;;;;;;4995312;28;20437;-71
2023/07/27 02:41:50;;;;;;;2.83;1.67;;;14.30;97.20;;;;;;4993733;28;20034;-71
2023/07/27 02:44:15;;;;;;;4.97;2.10;;;14.30;97.30;;;;;;4992427;28;20022;-71
2023/07/27 02:46:41;;;;;;;3.17;2.05;;;14.30;97.30;;;;;;4992851;28;20038;-71
2023/07/27 02:49:07;;;;;;;2.42;2.00;;;14.30;97.30;;;;;;4993018;28;20038;-71
2023/07/27 02:51:32;;;;;;;3.33;1.60;;;14.30;97.30;;;;;;4993061;28;20057;-71
2023/07/27 02:53:58;;;;;;;2.05;1.50;;;14.30;97.40;;;;;;4992512;28;20033;-71
2023/07/27 02:56:24;;;;;;;2.67;1.80;;;14.30;97.40;;;;;;4993105;28;20034;-71
2023/07/27 02:58:50;;;;;;;3.40;2.00;;;14.30;97.40;;;;;;4992436;28;20034;-71
2023/07/27 03:01:15;;;;;;;3.42;1.50;;;14.30;97.50;;;;;;4992828;28;20041;-71
2023/07/27 03:03:41;;;;;;;2.92;1.60;;;14.30;97.50;;;;;;4992676;28;20109;-71
2023/07/27 03:06:07;;;;;;;2.20;1.58;;;14.30;97.30;;;;;;4992813;28;20081;-71
2023/07/27 03:08:32;;;;;;;2.25;1.90;;;14.30;97.40;;;;;;4992827;28;20030;-71
2023/07/27 03:11:03;;;;;;;2.75;1.88;;;14.30;97.40;;;;;;4992601;28;20030;-71
2023/07/27 03:13:29;;;;;;;3.00;1.85;;;14.20;97.40;;;;;;4992747;28;20042;-71
2023/07/27 03:15:55;;;;;;;3.13;1.80;;;14.20;97.50;;;;;;4992526;28;20490;-71
2023/07/27 03:18:21;;;;;;;2.83;1.67;;;14.20;97.70;;;;;;4993114;28;20022;-71
2023/07/27 03:20:47;;;;;;;3.33;1.50;;;14.20;97.70;;;;;;4992196;28;20576;-71
2023/07/27 03:23:13;;;;;;;2.75;1.75;;;14.20;97.80;;;;;;4993137;28;20065;-71
2023/07/27 03:25:39;;;;;;;2.75;1.67;;;14.20;97.80;;;;;;4992443;28;20049;-71
2023/07/27 03:28:06;;;;;;;2.42;1.83;;;14.20;97.60;;;;;;4992926;28;20116;-71
2023/07/27 03:30:33;;;;;;;2.88;1.70;;;14.20;97.70;;;;;;4994504;28;20110;-71
2023/07/27 03:32:59;;;;;;;2.85;1.75;;;14.20;97.80;;;;;;4996016;28;20217;-71
2023/07/27 03:35:24;;;;;;;2.38;1.80;;;14.20;97.80;;;;;;4996285;28;20542;-71
2023/07/27 03:37:51;;;;;;;3.10;1.70;;;14.20;97.80;;;;;;4995661;28;20054;-70
2023/07/27 03:40:17;;;;;;;2.88;1.73;;;14.20;97.70;;;;;;4998975;28;20474;-70
2023/07/27 03:42:43;;;;;;;4.00;1.90;;;14.20;97.60;;;;;;4995819;28;20030;-71
2023/07/27 03:45:09;;;;;;;2.15;1.70;;;14.20;97.70;;;;;;4996191;28;20029;-71
2023/07/27 03:47:34;;;;;;;3.65;2.05;;;14.20;97.60;;;;;;4995826;28;20037;-71
2023/07/27 03:50:00;;;;;;;2.88;1.90;;;14.20;97.40;;;;;;4995708;28;20471;-71
2023/07/27 03:52:26;;;;;;;2.28;1.80;;;14.20;97.40;;;;;;4996208;28;20034;-71
2023/07/27 03:54:51;;;;;;;2.40;1.90;;;14.20;97.40;;;;;;4995926;28;20045;-71
2023/07/27 03:57:17;;;;;;;1.90;1.60;;;14.20;97.40;;;;;;4996281;28;20038;-71
2023/07/27 03:59:43;;;;;;;3.65;2.20;;;14.20;97.30;;;;;;4995323;28;20026;-72
2023/07/27 04:02:08;;;;;;;3.05;1.90;;;14.20;97.20;;;;;;4995637;28;20034;-71
2023/07/27 04:04:34;;;;;;;2.80;1.92;;;14.20;97.10;;;;;;4995538;28;20042;-71
2023/07/27 04:06:59;;;;;;;2.25;1.85;;;14.30;97.20;;;;;;4995297;28;20320;-71
2023/07/27 04:09:25;;;;;;;3.15;1.80;;;14.30;97.00;;;;;;4995690;28;20053;-71
2023/07/27 04:11:52;;;;;;;3.55;1.90;;;14.30;97.00;;;;;;4977843;28;20387;-71
2023/07/27 04:14:17;;;;;;;2.25;1.70;;;14.30;96.90;;;;;;4995610;28;20026;-71
2023/07/27 04:16:43;;;;;;;3.15;2.20;;;14.40;96.90;;;;;;4995230;28;20041;-72
2023/07/27 04:19:09;;;;;;;2.47;1.75;;;14.30;96.90;;;;;;5011948;28;20414;-71
2023/07/27 04:21:34;;;;;;;3.22;1.95;;;14.30;96.80;;;;;;5015093;28;20018;-71
2023/07/27 04:24:00;;;;;;;3.00;1.88;;;14.40;96.80;;;;;;5014358;28;20032;-71
2023/07/27 04:26:25;;;;;;;4.25;1.85;;;14.40;96.60;;;;;;5015160;28;20374;-71
2023/07/27 04:28:51;;;;;;;2.53;1.90;;;14.50;96.50;;;;;;5014291;28;20022;-71
2023/07/27 04:31:17;;;;;;;5.00;2.03;;;14.60;96.30;;;;;;5014707;28;20026;-71
2023/07/27 04:33:42;;;;;;;5.72;1.90;;;14.70;95.90;;;;;;5014330;28;20061;-72
2023/07/27 04:36:08;;;;;;;3.28;1.75;;;14.80;95.50;;;;;;5014775;28;20058;-71
2023/07/27 04:38:33;;;;;;;2.28;1.83;;;15.00;95.20;;;;;;5014806;28;20160;-71
2023/07/27 04:40:59;;;;;;;2.70;1.58;;;15.00;94.80;;;;;;5014094;28;20022;-71
2023/07/27 04:43:24;;;;;;;2.55;1.63;;;15.20;94.30;;;;;;5013922;28;20394;-71
2023/07/27 04:45:50;;;;;;;2.22;1.75;;;15.30;93.70;;;;;;5014216;28;20076;-71
2023/07/27 04:48:16;;;;;;;3.22;1.95;;;15.50;93.50;;;;;;5014228;28;20117;-71
2023/07/27 04:50:41;;;;;;;2.42;1.75;;;15.60;93.00;;;;;;5014278;28;20077;-71
2023/07/27 04:53:07;;;;;;;5.78;1.70;;;15.80;92.20;;;;;;5014177;28;20018;-72
2023/07/27 04:55:33;;;;;;;4.75;2.28;;;15.90;91.70;;;;;;5014186;28;20382;-72
2023/07/27 04:57:59;;;;;;;2.17;1.40;;;16.10;91.40;;;;;;5014022;28;20030;-72
2023/07/27 05:00:25;;;;;;;2.88;1.80;;;16.30;91.00;;;;;;5014360;28;20033;-72
2023/07/27 05:02:50;;;;;;;3.20;1.77;;;16.40;90.40;;;;;;5013667;28;20022;-72
2023/07/27 05:05:16;;;;;;;6.65;2.17;;;16.50;89.60;;;;;;5013905;28;20037;-71
2023/07/27 05:07:41;;;;;;;3.50;2.03;;;16.70;89.10;;;;;;5014302;28;20053;-72
2023/07/27 05:10:07;;;;;;;5.18;1.60;;;16.90;88.40;;;;;;5013712;28;20022;-72
2023/07/27 05:12:33;;;;;;;2.33;1.60;;;17.10;86.10;;;;;;5014177;28;20041;-71
2023/07/27 05:14:59;;;;;;;2.63;1.80;;;17.30;85.40;;;;;;5013808;28;20026;-72
2023/07/27 05:17:25;;;;;;;3.25;1.67;;;17.50;84.60;;;;;;5013794;28;20109;-72
2023/07/27 05:19:53;;;;;;;3.67;1.63;;;17.70;82.90;;;;;;5013669;28;20109;-72
2023/07/27 05:22:19;;;;;;;1.83;1.42;;;18.00;82.00;;;;;;5013845;28;20499;-72
2023/07/27 05:24:44;;;;;;;4.28;1.92;;;18.20;80.20;;;;;;5012660;28;20061;-72
2023/07/27 05:27:10;;;;;;;3.85;1.88;;;18.50;78.60;;;;;;5013380;28;20044;-71
2023/07/27 05:29:35;;;;;;;2.58;1.85;;;18.60;77.60;;;;;;5013565;28;20034;-70
2023/07/27 05:32:01;;;;;;;2.00;1.65;;;19.10;76.70;;;;;;5013293;28;20084;-71
2023/07/27 05:34:26;;;;;;;6.85;1.60;;;19.60;74.80;;;;;;5013369;28;20030;-71
2023/07/27 05:36:52;;;;;;;3.30;1.60;;;20.50;71.50;;;;;;5013243;28;20029;-71
2023/07/27 05:39:18;;;;;;;3.40;1.55;;;21.00;67.30;;;;;;5013521;28;20054;-71
2023/07/27 05:41:44;;;;;;;2.85;1.65;;;21.80;65.20;;;;;;5010729;28;20084;-71
2023/07/27 05:44:09;;;;;;;3.30;1.40;;;22.50;63.60;;;;;;4993538;28;20034;-71
2023/07/27 05:46:35;;;;;;;5.38;1.60;;;23.10;60.20;;;;;;4992986;28;20026;-71
2023/07/27 05:49:01;;;;;;;2.05;1.38;;;23.60;58.50;;;;;;4993193;28;20023;-70
2023/07/27 05:51:26;;;;;;;2.45;1.63;;;24.20;56.20;;;;;;4993825;28;20030;-70
2023/07/27 05:53:52;;;;;;;3.65;1.65;;;24.90;55.10;;;;;;4993240;28;20447;-71
2023/07/27 05:56:18;;;;;;;2.20;1.20;;;25.20;52.70;;;;;;4993593;28;20459;-71
2023/07/27 05:58:43;;;;;;;3.05;1.77;;;25.30;52.50;;;;;;4993642;28;20125;-71
2023/07/27 06:01:09;;;;;;;4.88;1.73;;;25.80;50.60;;;;;;4993467;28;20034;-71
2023/07/27 06:03:35;;;;;;;2.08;1.30;;;26.00;50.50;;;;;;4993539;28;20034;-71
2023/07/27 06:06:00;;;;;;;1.95;1.50;;;26.50;49.60;;;;;;4993199;28;20380;-72
2023/07/27 06:08:27;;;;;;;3.70;1.40;;;26.80;48.70;;;;;;4993499;28;20039;-71
2023/07/27 06:11:04;;;;;;;3.67;1.50;;;27.00;47.90;;;;;;4993109;28;20022;-71
2023/07/27 06:13:31;;;;;;;2.85;1.60;;;27.50;47.10;;;;;;4976191;28;20022;-72
2023/07/27 06:15:56;;;;;;;3.70;1.67;;;27.80;46.10;;;;;;4992986;28;20469;-71
2023/07/27 06:18:22;;;;;;;3.60;1.75;;;28.20;45.20;;;;;;4994388;28;20117;-71
2023/07/27 06:20:47;;;;;;;3.45;1.40;;;28.20;44.30;;;;;;4975925;28;20041;-72
2023/07/27 06:23:13;;;;;;;4.50;1.58;;;28.20;44.00;;;;;;4993043;28;20023;-71
2023/07/27 06:25:43;;;;;;;1.83;1.30;;;28.70;43.10;;;;;;4993285;28;20128;-71
2023/07/27 06:28:09;;;;;;;4.35;1.52;;;28.70;42.80;;;;;;4975379;28;20382;-71
2023/07/27 06:30:36;;;;;;;2.50;1.50;;;28.70;42.10;;;;;;4993308;28;20091;-72
2023/07/27 06:33:01;;;;;;;2.50;1.45;;;28.60;42.10;;;;;;4992658;28;20019;-71
2023/07/27 06:35:27;;;;;;;2.20;1.27;;;28.50;42.20;;;;;;4993757;28;20035;-71
2023/07/27 06:37:53;;;;;;;2.17;1.55;;;28.50;41.70;;;;;;4992899;28;20034;-72
2023/07/27 06:40:19;;;;;;;1.90;1.55;;;28.40;42.00;;;;;;4975840;28;20117;-71
2023/07/27 06:42:44;;;;;;;1.63;1.50;;;28.90;41.90;;;;;;4993003;28;20027;-71
2023/07/27 06:45:10;;;;;;;2.67;1.40;;;29.00;41.40;;;;;;4992894;28;20037;-72
2023/07/27 06:47:36;;;;;;;4.60;1.33;;;29.20;40.60;;;;;;4993160;28;20037;-72
2023/07/27 06:50:02;;;;;;;2.60;1.40;;;29.50;40.50;;;;;;4992824;28;20030;-72
2023/07/27 06:52:28;;;;;;;3.80;1.30;;;29.30;39.60;;;;;;4992743;28;20364;-72
2023/07/27 06:54:54;;;;;;;3.95;1.77;;;29.30;40.20;;;;;;4992859;28;20033;-72
2023/07/27 06:57:20;;;;;;;5.05;1.42;;;29.40;39.90;;;;;;4993059;28;20088;-71
2023/07/27 06:59:46;;;;;;;2.45;1.45;;;29.70;40.00;;;;;;4993137;28;20419;-71
2023/07/27 07:02:12;;;;;;;3.45;1.88;;;30.10;39.10;;;;;;4992675;28;20027;-71
2023/07/27 07:04:37;;;;;;;5.88;1.90;;;30.40;38.60;;;;;;4975816;28;20065;-74
2023/07/27 07:07:03;;;;;;;2.40;1.48;;;30.50;38.20;;;;;;4995778;28;20126;-72
2023/07/27 07:09:32;;;;;;;1.95;1.70;;;30.60;38.70;;;;;;4996730;28;20058;-70
2023/07/27 07:11:59;;;;;;;2.97;1.38;;;31.00;37.50;;;;;;4995981;28;20475;-70
2023/07/27 07:14:24;;;;;;;2.67;1.40;;;31.10;38.20;;;;;;4996655;28;20034;-71
2023/07/27 07:16:50;;;;;;;2.47;1.52;;;30.90;36.90;;;;;;4996908;28;20042;-71
2023/07/27 07:19:16;;;;;;;2.15;1.50;;;31.00;37.10;;;;;;4996127;28;20129;-70
2023/07/27 07:21:42;;;;;;;3.67;2.03;;;30.90;37.30;;;;;;4996610;28;20026;-70
2023/07/27 07:24:08;;;;;;;2.65;1.63;;;30.80;38.40;;;;;;4995816;28;20531;-71
2023/07/27 07:26:33;;;;;;;1.83;1.40;;;30.60;37.10;;;;;;4996542;28;20455;-71
2023/07/27 07:28:59;;;;;;;3.88;1.83;;;30.70;37.80;;;;;;4995774;28;20027;-71
2023/07/27 07:31:24;;;;;;;2.70;1.90;;;31.40;37.30;;;;;;4996622;28;20447;-71
2023/07/27 07:33:50;;;;;;;1.52;1.38;;;31.40;36.80;;;;;;4995904;28;20023;-71
2023/07/27 07:36:15;;;;;;;2.28;1.95;;;30.90;36.30;;;;;;4980914;28;20030;-71
2023/07/27 07:38:41;;;;;;;1.95;1.58;;;30.70;36.80;;;;;;4996269;28;20455;-70
2023/07/27 07:41:07;;;;;;;3.67;1.88;;;30.70;36.80;;;;;;4995414;28;20038;-71
2023/07/27 07:43:32;;;;;;;1.80;1.20;;;30.50;36.90;;;;;;4996327;28;20037;-72
2023/07/27 07:45:58;;;;;;;2.38;1.63;;;30.90;36.30;;;;;;4994864;28;20121;-71
2023/07/27 07:48:23;;;;;;;2.83;1.75;;;31.00;36.60;;;;;;4996200;28;20043;-71
2023/07/27 07:50:51;;;;;;;11.25;1.80;;;31.10;35.70;;;;;;4995980;28;20019;-71
2023/07/27 07:53:17;;;;;;;1.90;1.52;;;31.40;35.40;;;;;;4995405;28;20242;-71
2023/07/27 07:55:42;;;;;;;2.90;1.50;;;31.60;35.90;;;;;;4995955;28;20489;-71
2023/07/27 07:58:08;;;;;;;3.65;1.75;;;31.50;35.40;;;;;;4994286;28;20109;-71
2023/07/27 08:00:34;;;;;;;2.45;1.65;;;31.40;36.00;;;;;;4996340;28;20084;-71
2023/07/27 08:02:59;;;;;;;3.35;1.60;;;31.20;35.30;;;;;;4995990;28;20038;-72
2023/07/27 08:05:25;;;;;;;2.95;2.15;;;30.60;36.20;;;;;;4995646;28;20034;-72
2023/07/27 08:07:51;;;;;;;3.58;1.65;;;30.90;34.50;;;;;;4995184;28;20058;-71
2023/07/27 08:10:16;;;;;;;3.05;1.95;;;30.70;35.30;;;;;;4995800;28;20034;-72
2023/07/27 08:12:42;;;;;;;5.70;1.80;;;30.50;34.70;;;;;;4995593;28;20383;-72
2023/07/27 08:15:08;;;;;;;5.75;2.25;;;30.50;35.50;;;;;;4995001;28;20031;-71
2023/07/27 08:17:34;;;;;;;2.80;1.52;;;30.70;35.80;;;;;;4994113;28;20034;-71
2023/07/27 08:20:00;;;;;;;1.52;1.30;;;31.00;35.70;;;;;;4996192;28;20046;-71
2023/07/27 08:22:26;;;;;;;2.72;1.63;;;30.50;35.90;;;;;;4995257;28;20059;-72
2023/07/27 08:24:52;;;;;;;2.80;1.80;;;30.50;35.40;;;;;;4995426;28;20023;-71
2023/07/27 08:27:18;;;;;;;2.17;1.42;;;29.60;35.80;;;;;;4994940;28;20038;-71
2023/07/27 08:29:44;;;;;;;2.70;1.95;;;29.80;36.30;;;;;;4995160;28;20030;-72
2023/07/27 08:32:09;;;;;;;3.47;1.92;;;30.10;36.70;;;;;;4994651;28;20033;-72
2023/07/27 08:34:35;;;;;;;2.17;1.48;;;30.20;36.50;;;;;;4995116;28;20054;-71
2023/07/27 08:37:01;;;;;;;3.85;1.60;;;29.90;35.60;;;;;;4977320;28;20070;-71
2023/07/27 08:39:27;;;;;;;1.88;1.50;;;30.00;37.10;;;;;;4995289;28;20034;-71
2023/07/27 08:41:52;;;;;;;4.20;1.80;;;30.30;37.00;;;;;;4977510;28;20026;-71
2023/07/27 08:44:18;;;;;;;2.00;1.52;;;30.10;36.40;;;;;;4994631;28;20026;-71
2023/07/27 08:46:46;;;;;;;2.90;1.70;;;29.60;35.90;;;;;;4994981;28;20145;-71
2023/07/27 08:49:15;;;;;;;1.92;1.50;;;29.20;35.90;;;;;;4994187;28;20491;-71
2023/07/27 08:51:44;;;;;;;3.75;1.70;;;28.40;35.90;;;;;;4995144;28;20027;-71
2023/07/27 08:54:10;;;;;;;3.10;1.63;;;28.00;36.90;;;;;;4995363;28;20364;-71
2023/07/27 08:56:36;;;;;;;5.90;1.90;;;27.90;37.60;;;;;;4995396;28;20457;-71
2023/07/27 08:59:02;;;;;;;3.60;1.60;;;27.50;38.60;;;;;;4994620;28;20119;-71
2023/07/27 09:01:28;;;;;;;2.50;1.80;;;27.20;38.30;;;;;;4994861;28;20097;-71
2023/07/27 09:03:54;;;;;;;2.97;1.90;;;26.80;38.90;;;;;;4994771;28;20030;-71
2023/07/27 09:06:39;;;;;;;2.10;1.90;;;26.50;39.80;;;;;;4993933;28;20046;-71
2023/07/27 09:09:15;;;;;;;2.30;1.85;;;26.10;40.80;;;;;;4994090;28;20042;-70
2023/07/27 09:11:42;;;;;;;2.90;1.80;;;25.80;41.60;;;;;;4994645;28;20109;-71
2023/07/27 09:14:09;;;;;;;2.50;1.73;;;25.80;42.00;;;;;;4993976;28;20050;-71
2023/07/27 09:16:37;;;;;;;2.10;1.88;;;25.60;42.10;;;;;;4994486;28;20073;-71
2023/07/27 09:19:04;;;;;;;2.45;1.60;;;25.40;42.40;;;;;;4976764;28;20460;-73
2023/07/27 09:21:44;;;;;;;3.25;1.70;;;25.40;42.10;;;;;;4994634;28;20026;-71
2023/07/27 09:24:11;;;;;;;3.13;1.73;;;25.10;42.20;;;;;;4993825;28;20023;-71
2023/07/27 09:26:44;;;;;;;3.97;2.10;;;24.60;43.20;;;;;;4994002;28;20039;-71
2023/07/27 09:29:10;;;;;;;2.80;1.73;;;24.70;43.80;;;;;;4992993;28;20538;-71
2023/07/27 09:31:43;;;;;;;1.98;1.63;;;24.70;44.20;;;;;;4976858;28;20106;-71
2023/07/27 09:34:09;;;;;;;4.10;1.83;;;24.60;43.90;;;;;;4993848;28;20035;-71
2023/07/27 09:36:35;;;;;;;4.47;1.85;;;24.50;44.20;;;;;;4996533;28;20364;-71
2023/07/27 09:39:00;;;;;;;3.83;1.98;;;24.50;44.80;;;;;;4993752;28;20537;-71
2023/07/27 09:41:26;;;;;;;2.30;1.73;;;24.70;44.70;;;;;;4993080;28;20018;-71
2023/07/27 09:43:53;;;;;;;4.25;1.95;;;24.60;44.20;;;;;;4993988;28;20049;-70
2023/07/27 09:46:22;;;;;;;4.95;2.45;;;24.50;44.70;;;;;;4993336;28;20109;-71
2023/07/27 09:48:48;;;;;;;3.80;1.48;;;24.30;44.40;;;;;;4993713;28;20033;-70
2023/07/27 09:51:16;;;;;;;2.58;1.90;;;24.30;44.70;;;;;;4975893;28;20023;-71
2023/07/27 09:53:44;;;;;;;6.57;1.60;;;24.30;44.40;;;;;;4993704;28;20033;-71
2023/07/27 09:56:11;;;;;;;2.63;1.38;;;24.40;44.80;;;;;;4993190;28;20088;-71
2023/07/27 09:58:39;;;;;;;1.85;1.25;;;24.40;44.40;;;;;;4993562;28;20485;-70
2023/07/27 10:01:05;;;;;;;3.15;2.05;;;24.40;44.00;;;;;;4993420;28;20149;-70
2023/07/27 10:03:30;;;;;;;6.97;2.33;;;24.50;44.20;;;;;;4992956;28;20105;-71
2023/07/27 10:05:56;;;;;;;11.98;2.88;;;24.60;43.60;;;;;;4993245;28;20062;-70
2023/07/27 10:08:23;;;;;;;10.20;2.30;;;24.70;42.80;;;;;;4992984;28;20037;-70
2023/07/27 10:10:58;;;;;;;5.60;2.10;;;24.70;42.00;;;;;;4993275;28;20470;-71
2023/07/27 10:13:24;;;;;;;10.13;2.33;;;24.70;42.60;;;;;;5010096;28;20526;-70
2023/07/27 10:15:52;;;;;;;3.75;1.90;;;24.60;42.50;;;;;;5013225;28;20117;-70
2023/07/27 10:18:23;;;;;;;2.60;1.63;;;24.50;42.50;;;;;;5012274;28;20033;-70
2023/07/27 10:20:50;;;;;;;2.15;1.50;;;24.50;41.70;;;;;;5012783;28;20485;-70
2023/07/27 10:23:28;;;;;;;1.48;1.38;;;24.60;42.10;;;;;;5012434;28;20030;-70
2023/07/27 10:25:56;;;;;;;3.10;1.60;;;24.70;42.40;;;;;;5012690;28;20030;-71
2023/07/27 10:28:54;;;;;;;3.63;1.70;;;24.70;44.60;;;;;;5012377;28;20168;-72
2023/07/27 10:31:25;;;;;;;2.90;1.70;;;24.70;42.80;;;;;;4968505;28;20038;-72
2023/07/27 10:33:54;;;;;;;3.25;1.40;;;24.80;42.70;;;;;;5013089;28;20025;-70
2023/07/27 10:36:20;;;;;;;2.22;1.63;;;24.70;42.60;;;;;;5012272;28;20073;-71
2023/07/27 10:38:56;;;;;;;2.50;1.60;;;24.80;42.40;;;;;;5012681;28;20030;-70
2023/07/27 10:41:24;;;;;;;2.20;1.20;;;24.90;41.90;;;;;;5015135;28;20026;-71
2023/07/27 10:44:08;;;;;;;2.45;1.63;;;24.90;41.40;;;;;;5016661;28;20053;-70
2023/07/27 10:46:46;;;;;;;2.78;1.83;;;24.90;41.70;;;;;;5015813;28;20032;-71
2023/07/27 10:49:15;;;;;;;3.72;1.80;;;24.90;41.50;;;;;;5016301;28;20034;-71
2023/07/27 10:51:42;;;;;;;4.57;1.70;;;25.00;42.60;;;;;;5016508;28;20374;-71
2023/07/27 10:54:09;;;;;;;1.45;1.33;;;25.00;41.70;;;;;;5016477;28;20101;-72
2023/07/27 10:56:35;;;;;;;3.22;1.40;;;25.00;42.40;;;;;;5016390;28;20030;-71
2023/07/27 10:59:01;;;;;;;3.83;1.40;;;25.10;42.00;;;;;;5016591;28;20034;-71
2023/07/27 11:01:29;;;;;;;2.42;1.60;;;25.10;42.20;;;;;;5015831;28;20478;-70
2023/07/27 11:03:56;;;;;;;3.45;1.40;;;25.10;42.30;;;;;;5016011;28;20022;-71
2023/07/27 11:06:22;;;;;;;1.88;1.40;;;25.10;40.00;;;;;;5015641;28;20042;-70
2023/07/27 11:08:47;;;;;;;2.08;1.60;;;25.10;39.70;;;;;;5016269;28;20057;-71
2023/07/27 11:11:19;;;;;;;2.40;1.25;;;25.10;39.50;;;;;;5015861;28;20509;-71
2023/07/27 11:13:45;;;;;;;2.10;1.33;;;25.00;39.50;;;;;;5016357;28;20036;-71
2023/07/27 11:16:12;;;;;;;2.95;1.40;;;25.00;39.30;;;;;;4998649;28;20471;-72
2023/07/27 11:18:38;;;;;;;6.15;1.58;;;25.00;39.70;;;;;;5016457;28;20026;-71
2023/07/27 11:21:04;;;;;;;3.88;1.55;;;25.00;40.40;;;;;;5016041;28;20356;-72
2023/07/27 11:23:30;;;;;;;2.65;1.90;;;25.00;39.70;;;;;;5015565;28;20021;-71
2023/07/27 11:25:57;;;;;;;2.55;1.55;;;25.00;39.80;;;;;;5016260;28;20374;-71
2023/07/27 11:28:22;;;;;;;3.97;1.42;;;25.00;39.70;;;;;;5012161;28;20454;-71
2023/07/27 11:30:52;;;;;;;2.53;1.33;;;25.10;40.00;;;;;;5016023;28;20026;-72
2023/07/27 11:33:26;;;;;;;2.90;1.38;;;25.10;40.40;;;;;;5014204;28;20040;-72
2023/07/27 11:35:52;;;;;;;4.00;1.48;;;25.20;38.20;;;;;;5015856;28;20026;-72
2023/07/27 11:38:18;;;;;;;2.33;1.13;;;25.20;38.20;;;;;;5007254;28;20102;-71
2023/07/27 11:40:48;;;;;;;3.25;1.30;;;25.20;38.10;;;;;;4995813;28;20022;-72
2023/07/27 11:43:14;;;;;;;2.30;1.58;;;25.10;36.90;;;;;;4995690;28;20442;-72
2023/07/27 11:45:40;;;;;;;2.03;1.50;;;25.10;38.10;;;;;;4995989;28;20066;-71
2023/07/27 11:48:06;;;;;;;3.05;1.67;;;25.10;37.70;;;;;;4996026;28;20038;-71
2023/07/27 11:50:37;;;;;;;3.97;1.60;;;25.10;37.30;;;;;;4995285;28;20027;-72
2023/07/27 11:53:07;;;;;;;2.03;1.52;;;25.20;37.60;;;;;;4995976;28;20122;-71
2023/07/27 11:55:34;;;;;;;1.43;1.20;;;25.20;38.00;;;;;;4995567;28;20054;-72
2023/07/27 11:58:03;;;;;;;1.70;1.42;;;25.30;37.80;;;;;;4995721;28;20268;-72
2023/07/27 12:00:29;;;;;;;2.00;1.33;;;25.30;36.60;;;;;;4994907;28;20022;-72
2023/07/27 12:02:54;;;;;;;2.40;1.40;;;25.30;36.70;;;;;;4995673;28;20026;-72
2023/07/27 12:05:22;;;;;;;2.80;1.60;;;25.30;36.70;;;;;;4995002;28;20027;-70
2023/07/27 12:07:50;;;;;;;2.25;1.50;;;25.40;36.20;;;;;;5008635;28;20100;-71
2023/07/27 12:10:17;;;;;;;3.03;1.50;;;25.20;35.90;;;;;;5014733;28;20470;-70
2023/07/27 12:13:01;;;;;;;2.85;1.67;;;25.30;36.10;;;;;;5015204;28;20054;-70
2023/07/27 12:15:31;;;;;;;1.80;1.35;;;25.10;36.40;;;;;;5014757;28;20050;-71
2023/07/27 12:17:58;;;;;;;;;;;25.10;37.20;;;;;;5015484;28;20034;-70
2023/07/27 12:20:28;;;;;;;2.75;1.40;;;25.10;37.50;;;;;;5014843;28;19999;-71
2023/07/27 12:22:56;;;;;;;2.13;1.55;;;25.10;36.70;;;;;;5014913;28;20109;-71
2023/07/27 12:25:23;;;;;;;2.22;1.40;;;25.10;35.90;;;;;;5014513;28;20088;-72
2023/07/27 12:27:49;;;;;;;2.70;1.58;;;25.10;35.30;;;;;;5014762;28;20034;-71
2023/07/27 12:30:15;;;;;;;2.63;1.50;;;25.00;35.20;;;;;;5013526;28;20103;-71
2023/07/27 12:32:40;;;;;;;3.28;1.55;;;24.90;37.00;;;;;;5014190;28;20111;-71
2023/07/27 12:35:06;;;;;;;2.63;1.50;;;25.00;36.40;;;;;;5014477;28;20378;-71
2023/07/27 12:37:32;;;;;;;1.55;1.25;;;25.10;35.90;;;;;;5014282;28;20034;-72
2023/07/27 12:39:58;;;;;;;3.80;1.52;;;25.10;35.90;;;;;;5014913;28;20459;-72
2023/07/27 12:42:24;;;;;;;3.40;1.45;;;25.20;35.90;;;;;;5014578;28;20080;-71
2023/07/27 12:44:51;;;;;;;1.98;1.35;;;25.10;35.50;;;;;;5014565;28;20057;-71
2023/07/27 12:47:17;;;;;;;2.90;1.70;;;25.10;35.60;;;;;;5014502;28;20044;-71